sensor_id;sensor_type;location;lat;lon;timestamp;P1;durP1;ratioP1;P2;durP2;ratioP2
57858;SDS011;49153;45.568;11.894;2022-12-07T00:01:33;19.10;;;11.93;;
57858;SDS011;49153;45.568;11.894;2022-12-07T00:04:01;20.70;;;11.82;;
57858;SDS011;49153;45.568;11.894;2022-12-07T00:06:32;16.70;;;10.20;;
57858;SDS011;49153;45.568;11.894;2022-12-07T00:08:59;20.83;;;12.57;;
57858;SDS011;49153;45.568;11.894;2022-12-07T00:11:25;17.73;;;11.20;;
57858;SDS011;49153;45.568;11.894;2022-12-07T00:13:55;18.05;;;11.90;;
57858;SDS011;49153;45.568;11.894;2022-12-07T00:16:23;19.38;;;11.70;;
57858;SDS011;49153;45.568;11.894;2022-12-07T00:18:50;17.92;;;12.05;;
57858;SDS011;49153;45.568;11.894;2022-12-07T00:21:34;20.17;;;13.02;;
57858;SDS011;49153;45.568;11.894;2022-12-07T00:24:00;23.48;;;13.85;;
57858;SDS011;49153;45.568;11.894;2022-12-07T00:26:28;22.67;;;13.38;;
57858;SDS011;49153;45.568;11.894;2022-12-07T00:28:59;25.23;;;13.32;;
57858;SDS011;49153;45.568;11.894;2022-12-07T00:31:27;19.90;;;12.15;;
57858;SDS011;49153;45.568;11.894;2022-12-07T00:33:55;19.30;;;11.57;;
57858;SDS011;49153;45.568;11.894;2022-12-07T00:36:21;16.98;;;10.18;;
57858;SDS011;49153;45.568;11.894;2022-12-07T00:38:48;17.02;;;10.60;;
57858;SDS011;49153;45.568;11.894;2022-12-07T00:41:15;15.93;;;9.80;;
57858;SDS011;49153;45.568;11.894;2022-12-07T00:43:44;15.48;;;10.07;;
57858;SDS011;49153;45.568;11.894;2022-12-07T00:46:11;19.27;;;11.07;;
57858;SDS011;49153;45.568;11.894;2022-12-07T00:48:37;16.40;;;10.30;;
57858;SDS011;49153;45.568;11.894;2022-12-07T00:51:03;16.83;;;9.52;;
57858;SDS011;49153;45.568;11.894;2022-12-07T00:53:30;18.38;;;9.73;;
57858;SDS011;49153;45.568;11.894;2022-12-07T00:55:58;16.50;;;9.88;;
57858;SDS011;49153;45.568;11.894;2022-12-07T00:58:30;16.33;;;10.20;;
57858;SDS011;49153;45.568;11.894;2022-12-07T01:00:56;17.48;;;9.85;;
57858;SDS011;49153;45.568;11.894;2022-12-07T01:03:26;18.23;;;10.48;;
57858;SDS011;49153;45.568;11.894;2022-12-07T01:05:52;18.42;;;10.77;;
57858;SDS011;49153;45.568;11.894;2022-12-07T01:08:19;19.60;;;11.57;;
57858;SDS011;49153;45.568;11.894;2022-12-07T01:10:45;18.85;;;11.00;;
57858;SDS011;49153;45.568;11.894;2022-12-07T01:13:11;16.10;;;10.30;;
57858;SDS011;49153;45.568;11.894;2022-12-07T01:15:40;15.02;;;9.15;;
57858;SDS011;49153;45.568;11.894;2022-12-07T01:18:06;17.13;;;10.38;;
57858;SDS011;49153;45.568;11.894;2022-12-07T01:20:32;17.13;;;10.10;;
57858;SDS011;49153;45.568;11.894;2022-12-07T01:22:58;16.67;;;10.10;;
57858;SDS011;49153;45.568;11.894;2022-12-07T01:25:23;17.30;;;9.90;;
57858;SDS011;49153;45.568;11.894;2022-12-07T01:27:49;17.13;;;10.00;;
57858;SDS011;49153;45.568;11.894;2022-12-07T01:30:14;16.13;;;10.38;;
57858;SDS011;49153;45.568;11.894;2022-12-07T01:32:40;18.40;;;10.68;;
57858;SDS011;49153;45.568;11.894;2022-12-07T01:35:05;17.92;;;9.85;;
57858;SDS011;49153;45.568;11.894;2022-12-07T01:37:37;16.33;;;10.40;;
57858;SDS011;49153;45.568;11.894;2022-12-07T01:40:07;16.83;;;9.90;;
57858;SDS011;49153;45.568;11.894;2022-12-07T01:47:43;17.27;;;10.23;;
57858;SDS011;49153;45.568;11.894;2022-12-07T01:50:20;16.17;;;9.75;;
57858;SDS011;49153;45.568;11.894;2022-12-07T01:52:47;17.17;;;10.35;;
57858;SDS011;49153;45.568;11.894;2022-12-07T01:55:15;17.40;;;10.35;;
57858;SDS011;49153;45.568;11.894;2022-12-07T01:57:47;16.08;;;9.43;;
57858;SDS011;49153;45.568;11.894;2022-12-07T02:00:15;16.15;;;10.15;;
57858;SDS011;49153;45.568;11.894;2022-12-07T02:05:33;12.05;;;7.60;;
57858;SDS011;49153;45.568;11.894;2022-12-07T02:08:00;17.25;;;9.32;;
57858;SDS011;49153;45.568;11.894;2022-12-07T02:10:28;14.95;;;9.20;;
57858;SDS011;49153;45.568;11.894;2022-12-07T02:12:56;15.35;;;9.23;;
57858;SDS011;49153;45.568;11.894;2022-12-07T02:15:34;14.10;;;9.55;;
57858;SDS011;49153;45.568;11.894;2022-12-07T02:18:13;16.30;;;9.13;;
57858;SDS011;49153;45.568;11.894;2022-12-07T02:29:14;16.77;;;9.18;;
57858;SDS011;49153;45.568;11.894;2022-12-07T02:34:46;15.55;;;8.50;;
57858;SDS011;49153;45.568;11.894;2022-12-07T02:37:26;17.50;;;9.73;;
57858;SDS011;49153;45.568;11.894;2022-12-07T02:40:09;15.63;;;9.50;;
57858;SDS011;49153;45.568;11.894;2022-12-07T02:42:41;16.40;;;9.43;;
57858;SDS011;49153;45.568;11.894;2022-12-07T02:45:11;16.00;;;9.40;;
57858;SDS011;49153;45.568;11.894;2022-12-07T02:50:08;13.10;;;7.93;;
57858;SDS011;49153;45.568;11.894;2022-12-07T02:52:34;14.75;;;7.53;;
57858;SDS011;49153;45.568;11.894;2022-12-07T02:54:59;16.40;;;8.85;;
57858;SDS011;49153;45.568;11.894;2022-12-07T03:05:05;14.07;;;8.77;;
57858;SDS011;49153;45.568;11.894;2022-12-07T03:11:09;14.57;;;8.52;;
57858;SDS011;49153;45.568;11.894;2022-12-07T03:13:42;14.55;;;8.32;;
57858;SDS011;49153;45.568;11.894;2022-12-07T03:21:20;14.07;;;7.97;;
57858;SDS011;49153;45.568;11.894;2022-12-07T03:26:18;13.80;;;8.02;;
57858;SDS011;49153;45.568;11.894;2022-12-07T03:28:49;16.17;;;8.77;;
57858;SDS011;49153;45.568;11.894;2022-12-07T03:33:53;16.42;;;8.18;;
57858;SDS011;49153;45.568;11.894;2022-12-07T03:41:53;14.20;;;8.32;;
57858;SDS011;49153;45.568;11.894;2022-12-07T03:44:20;14.55;;;8.77;;
57858;SDS011;49153;45.568;11.894;2022-12-07T03:46:52;14.73;;;8.48;;
57858;SDS011;49153;45.568;11.894;2022-12-07T03:56:56;15.05;;;7.95;;
57858;SDS011;49153;45.568;11.894;2022-12-07T03:59:23;15.38;;;8.95;;
57858;SDS011;49153;45.568;11.894;2022-12-07T04:01:53;13.90;;;8.30;;
57858;SDS011;49153;45.568;11.894;2022-12-07T04:04:21;14.57;;;8.45;;
57858;SDS011;49153;45.568;11.894;2022-12-07T04:06:47;14.20;;;8.10;;
57858;SDS011;49153;45.568;11.894;2022-12-07T04:09:13;14.90;;;8.35;;
57858;SDS011;49153;45.568;11.894;2022-12-07T04:11:39;15.13;;;8.73;;
57858;SDS011;49153;45.568;11.894;2022-12-07T04:14:05;14.85;;;9.00;;
57858;SDS011;49153;45.568;11.894;2022-12-07T04:16:46;14.63;;;8.07;;
57858;SDS011;49153;45.568;11.894;2022-12-07T04:19:17;13.13;;;7.55;;
57858;SDS011;49153;45.568;11.894;2022-12-07T04:21:44;14.52;;;8.32;;
57858;SDS011;49153;45.568;11.894;2022-12-07T04:24:11;16.15;;;8.80;;
57858;SDS011;49153;45.568;11.894;2022-12-07T04:26:37;14.18;;;9.00;;
57858;SDS011;49153;45.568;11.894;2022-12-07T04:29:03;16.73;;;8.52;;
57858;SDS011;49153;45.568;11.894;2022-12-07T04:31:28;16.23;;;8.73;;
57858;SDS011;49153;45.568;11.894;2022-12-07T04:33:53;16.02;;;8.82;;
57858;SDS011;49153;45.568;11.894;2022-12-07T04:36:19;12.80;;;8.05;;
57858;SDS011;49153;45.568;11.894;2022-12-07T04:38:45;13.82;;;8.57;;
57858;SDS011;49153;45.568;11.894;2022-12-07T04:41:11;14.40;;;8.48;;
57858;SDS011;49153;45.568;11.894;2022-12-07T04:43:36;14.43;;;8.63;;
57858;SDS011;49153;45.568;11.894;2022-12-07T04:46:02;12.18;;;7.50;;
57858;SDS011;49153;45.568;11.894;2022-12-07T04:48:28;14.05;;;7.90;;
57858;SDS011;49153;45.568;11.894;2022-12-07T04:50:53;15.13;;;8.32;;
57858;SDS011;49153;45.568;11.894;2022-12-07T04:53:19;15.20;;;8.35;;
57858;SDS011;49153;45.568;11.894;2022-12-07T04:55:45;16.17;;;8.82;;
57858;SDS011;49153;45.568;11.894;2022-12-07T04:58:11;15.43;;;8.63;;
57858;SDS011;49153;45.568;11.894;2022-12-07T05:00:37;15.82;;;8.35;;
57858;SDS011;49153;45.568;11.894;2022-12-07T05:03:03;12.32;;;7.72;;
57858;SDS011;49153;45.568;11.894;2022-12-07T05:05:28;14.10;;;8.13;;
57858;SDS011;49153;45.568;11.894;2022-12-07T05:07:54;15.50;;;8.20;;
57858;SDS011;49153;45.568;11.894;2022-12-07T05:10:19;14.88;;;8.90;;
57858;SDS011;49153;45.568;11.894;2022-12-07T05:12:45;14.75;;;8.27;;
57858;SDS011;49153;45.568;11.894;2022-12-07T05:15:11;15.35;;;8.63;;
57858;SDS011;49153;45.568;11.894;2022-12-07T05:17:37;17.08;;;9.05;;
57858;SDS011;49153;45.568;11.894;2022-12-07T05:20:03;16.48;;;8.50;;
57858;SDS011;49153;45.568;11.894;2022-12-07T05:22:29;15.82;;;8.52;;
57858;SDS011;49153;45.568;11.894;2022-12-07T05:24:55;14.27;;;8.60;;
57858;SDS011;49153;45.568;11.894;2022-12-07T05:27:20;13.25;;;8.30;;
57858;SDS011;49153;45.568;11.894;2022-12-07T05:29:46;14.15;;;8.77;;
57858;SDS011;49153;45.568;11.894;2022-12-07T05:32:12;15.98;;;8.68;;
57858;SDS011;49153;45.568;11.894;2022-12-07T05:34:37;16.45;;;8.30;;
57858;SDS011;49153;45.568;11.894;2022-12-07T05:37:03;13.82;;;8.15;;
57858;SDS011;49153;45.568;11.894;2022-12-07T05:39:28;14.52;;;8.45;;
57858;SDS011;49153;45.568;11.894;2022-12-07T05:41:53;17.08;;;9.57;;
57858;SDS011;49153;45.568;11.894;2022-12-07T05:44:40;15.70;;;8.88;;
57858;SDS011;49153;45.568;11.894;2022-12-07T05:47:07;19.83;;;8.82;;
57858;SDS011;49153;45.568;11.894;2022-12-07T05:49:32;16.98;;;8.88;;
57858;SDS011;49153;45.568;11.894;2022-12-07T05:51:58;16.88;;;9.73;;
57858;SDS011;49153;45.568;11.894;2022-12-07T05:54:24;16.70;;;9.52;;
57858;SDS011;49153;45.568;11.894;2022-12-07T05:56:50;15.27;;;9.50;;
57858;SDS011;49153;45.568;11.894;2022-12-07T05:59:15;17.83;;;9.55;;
57858;SDS011;49153;45.568;11.894;2022-12-07T06:01:48;27.02;;;12.57;;
57858;SDS011;49153;45.568;11.894;2022-12-07T06:04:14;22.85;;;12.68;;
57858;SDS011;49153;45.568;11.894;2022-12-07T06:06:39;20.67;;;11.13;;
57858;SDS011;49153;45.568;11.894;2022-12-07T06:09:05;18.25;;;10.82;;
57858;SDS011;49153;45.568;11.894;2022-12-07T06:11:31;22.02;;;12.40;;
57858;SDS011;49153;45.568;11.894;2022-12-07T06:14:15;19.38;;;11.43;;
57858;SDS011;49153;45.568;11.894;2022-12-07T06:16:40;18.10;;;10.27;;
57858;SDS011;49153;45.568;11.894;2022-12-07T06:19:06;17.52;;;9.23;;
57858;SDS011;49153;45.568;11.894;2022-12-07T06:21:31;16.38;;;8.57;;
57858;SDS011;49153;45.568;11.894;2022-12-07T06:23:57;15.77;;;8.45;;
57858;SDS011;49153;45.568;11.894;2022-12-07T06:26:22;16.48;;;8.35;;
57858;SDS011;49153;45.568;11.894;2022-12-07T06:28:48;14.98;;;8.77;;
57858;SDS011;49153;45.568;11.894;2022-12-07T06:31:13;16.40;;;9.02;;
57858;SDS011;49153;45.568;11.894;2022-12-07T06:33:40;19.05;;;10.13;;
57858;SDS011;49153;45.568;11.894;2022-12-07T06:36:06;15.00;;;8.88;;
57858;SDS011;49153;45.568;11.894;2022-12-07T06:38:32;16.98;;;9.68;;
57858;SDS011;49153;45.568;11.894;2022-12-07T06:40:57;16.73;;;8.43;;
57858;SDS011;49153;45.568;11.894;2022-12-07T06:43:22;21.42;;;10.40;;
57858;SDS011;49153;45.568;11.894;2022-12-07T06:45:48;17.63;;;10.73;;
57858;SDS011;49153;45.568;11.894;2022-12-07T06:48:13;17.42;;;9.90;;
57858;SDS011;49153;45.568;11.894;2022-12-07T06:50:39;21.15;;;12.25;;
57858;SDS011;49153;45.568;11.894;2022-12-07T06:53:04;17.05;;;10.23;;
57858;SDS011;49153;45.568;11.894;2022-12-07T06:55:30;17.25;;;10.32;;
57858;SDS011;49153;45.568;11.894;2022-12-07T06:57:55;17.73;;;10.00;;
57858;SDS011;49153;45.568;11.894;2022-12-07T07:00:21;20.65;;;10.85;;
57858;SDS011;49153;45.568;11.894;2022-12-07T07:02:47;17.00;;;9.90;;
57858;SDS011;49153;45.568;11.894;2022-12-07T07:05:12;22.48;;;12.40;;
57858;SDS011;49153;45.568;11.894;2022-12-07T07:07:38;21.42;;;11.55;;
57858;SDS011;49153;45.568;11.894;2022-12-07T07:10:03;28.15;;;14.45;;
57858;SDS011;49153;45.568;11.894;2022-12-07T07:12:29;26.27;;;13.30;;
57858;SDS011;49153;45.568;11.894;2022-12-07T07:14:54;24.95;;;12.77;;
57858;SDS011;49153;45.568;11.894;2022-12-07T07:17:20;26.00;;;14.20;;
57858;SDS011;49153;45.568;11.894;2022-12-07T07:19:45;28.55;;;12.93;;
57858;SDS011;49153;45.568;11.894;2022-12-07T07:22:11;23.83;;;12.77;;
57858;SDS011;49153;45.568;11.894;2022-12-07T07:24:36;22.60;;;12.63;;
57858;SDS011;49153;45.568;11.894;2022-12-07T07:27:02;23.65;;;12.65;;
57858;SDS011;49153;45.568;11.894;2022-12-07T07:29:27;27.52;;;14.15;;
57858;SDS011;49153;45.568;11.894;2022-12-07T07:31:53;25.90;;;13.93;;
57858;SDS011;49153;45.568;11.894;2022-12-07T07:34:18;29.83;;;14.98;;
57858;SDS011;49153;45.568;11.894;2022-12-07T07:36:44;26.05;;;12.77;;
57858;SDS011;49153;45.568;11.894;2022-12-07T07:39:09;23.10;;;10.73;;
57858;SDS011;49153;45.568;11.894;2022-12-07T07:41:37;18.48;;;9.95;;
57858;SDS011;49153;45.568;11.894;2022-12-07T07:44:02;16.30;;;9.23;;
57858;SDS011;49153;45.568;11.894;2022-12-07T07:46:28;21.48;;;11.10;;
57858;SDS011;49153;45.568;11.894;2022-12-07T07:48:53;18.48;;;10.82;;
57858;SDS011;49153;45.568;11.894;2022-12-07T07:51:19;18.70;;;11.23;;
57858;SDS011;49153;45.568;11.894;2022-12-07T07:53:44;18.52;;;11.07;;
57858;SDS011;49153;45.568;11.894;2022-12-07T07:56:10;20.10;;;11.35;;
57858;SDS011;49153;45.568;11.894;2022-12-07T07:58:35;21.65;;;13.10;;
57858;SDS011;49153;45.568;11.894;2022-12-07T08:01:04;23.95;;;12.80;;
57858;SDS011;49153;45.568;11.894;2022-12-07T08:03:30;23.88;;;12.77;;
57858;SDS011;49153;45.568;11.894;2022-12-07T08:05:56;24.38;;;12.75;;
57858;SDS011;49153;45.568;11.894;2022-12-07T08:08:21;22.67;;;12.85;;
57858;SDS011;49153;45.568;11.894;2022-12-07T08:10:47;23.67;;;13.07;;
57858;SDS011;49153;45.568;11.894;2022-12-07T08:13:14;22.33;;;12.57;;
57858;SDS011;49153;45.568;11.894;2022-12-07T08:15:41;26.50;;;13.57;;
57858;SDS011;49153;45.568;11.894;2022-12-07T08:18:11;22.90;;;12.93;;
57858;SDS011;49153;45.568;11.894;2022-12-07T08:20:38;24.17;;;12.57;;
57858;SDS011;49153;45.568;11.894;2022-12-07T08:23:04;25.42;;;12.88;;
57858;SDS011;49153;45.568;11.894;2022-12-07T08:25:33;27.48;;;14.00;;
57858;SDS011;49153;45.568;11.894;2022-12-07T08:27:59;25.63;;;14.32;;
57858;SDS011;49153;45.568;11.894;2022-12-07T08:30:25;23.65;;;12.43;;
57858;SDS011;49153;45.568;11.894;2022-12-07T08:32:52;24.00;;;13.25;;
57858;SDS011;49153;45.568;11.894;2022-12-07T08:35:17;24.65;;;12.57;;
57858;SDS011;49153;45.568;11.894;2022-12-07T08:37:43;23.83;;;13.23;;
57858;SDS011;49153;45.568;11.894;2022-12-07T08:40:09;27.23;;;15.23;;
57858;SDS011;49153;45.568;11.894;2022-12-07T08:42:40;23.23;;;12.52;;
57858;SDS011;49153;45.568;11.894;2022-12-07T08:45:11;22.02;;;12.68;;
57858;SDS011;49153;45.568;11.894;2022-12-07T08:47:39;25.20;;;13.55;;
57858;SDS011;49153;45.568;11.894;2022-12-07T08:50:09;25.65;;;13.70;;
57858;SDS011;49153;45.568;11.894;2022-12-07T08:52:36;24.77;;;14.25;;
57858;SDS011;49153;45.568;11.894;2022-12-07T08:55:02;24.73;;;13.85;;
57858;SDS011;49153;45.568;11.894;2022-12-07T08:57:29;24.73;;;13.50;;
57858;SDS011;49153;45.568;11.894;2022-12-07T08:59:57;23.50;;;13.32;;
57858;SDS011;49153;45.568;11.894;2022-12-07T09:02:23;22.88;;;11.77;;
57858;SDS011;49153;45.568;11.894;2022-12-07T09:04:49;22.00;;;12.90;;
57858;SDS011;49153;45.568;11.894;2022-12-07T09:07:14;20.27;;;12.55;;
57858;SDS011;49153;45.568;11.894;2022-12-07T09:09:40;23.58;;;13.43;;
57858;SDS011;49153;45.568;11.894;2022-12-07T09:12:05;20.25;;;11.20;;
57858;SDS011;49153;45.568;11.894;2022-12-07T09:14:31;20.27;;;11.57;;
57858;SDS011;49153;45.568;11.894;2022-12-07T09:17:04;18.42;;;10.23;;
57858;SDS011;49153;45.568;11.894;2022-12-07T09:19:34;21.10;;;11.63;;
57858;SDS011;49153;45.568;11.894;2022-12-07T09:22:00;23.55;;;12.02;;
57858;SDS011;49153;45.568;11.894;2022-12-07T09:24:26;18.75;;;11.25;;
57858;SDS011;49153;45.568;11.894;2022-12-07T09:26:51;20.30;;;11.23;;
57858;SDS011;49153;45.568;11.894;2022-12-07T09:29:16;17.88;;;9.98;;
57858;SDS011;49153;45.568;11.894;2022-12-07T09:31:42;20.48;;;10.20;;
57858;SDS011;49153;45.568;11.894;2022-12-07T09:34:07;16.83;;;10.20;;
57858;SDS011;49153;45.568;11.894;2022-12-07T09:36:33;18.08;;;9.90;;
57858;SDS011;49153;45.568;11.894;2022-12-07T09:38:58;17.20;;;9.63;;
57858;SDS011;49153;45.568;11.894;2022-12-07T09:41:24;18.27;;;9.45;;
57858;SDS011;49153;45.568;11.894;2022-12-07T09:43:52;15.70;;;9.75;;
57858;SDS011;49153;45.568;11.894;2022-12-07T09:46:20;15.90;;;8.60;;
57858;SDS011;49153;45.568;11.894;2022-12-07T09:48:47;14.88;;;8.45;;
57858;SDS011;49153;45.568;11.894;2022-12-07T09:51:16;16.00;;;10.05;;
57858;SDS011;49153;45.568;11.894;2022-12-07T09:53:47;13.60;;;8.68;;
57858;SDS011;49153;45.568;11.894;2022-12-07T09:56:14;13.30;;;8.80;;
57858;SDS011;49153;45.568;11.894;2022-12-07T09:58:40;15.45;;;8.45;;
57858;SDS011;49153;45.568;11.894;2022-12-07T10:03:33;16.83;;;8.98;;
57858;SDS011;49153;45.568;11.894;2022-12-07T10:06:02;13.63;;;9.50;;
57858;SDS011;49153;45.568;11.894;2022-12-07T10:08:29;16.77;;;9.30;;
57858;SDS011;49153;45.568;11.894;2022-12-07T10:10:55;14.82;;;8.40;;
57858;SDS011;49153;45.568;11.894;2022-12-07T10:13:43;14.60;;;8.98;;
57858;SDS011;49153;45.568;11.894;2022-12-07T10:19:17;14.10;;;9.55;;
57858;SDS011;49153;45.568;11.894;2022-12-07T10:21:56;14.77;;;9.45;;
57858;SDS011;49153;45.568;11.894;2022-12-07T10:24:29;15.30;;;8.43;;
57858;SDS011;49153;45.568;11.894;2022-12-07T10:26:55;13.75;;;8.32;;
57858;SDS011;49153;45.568;11.894;2022-12-07T10:32:06;16.17;;;9.60;;
57858;SDS011;49153;45.568;11.894;2022-12-07T10:35:18;13.93;;;8.90;;
57858;SDS011;49153;45.568;11.894;2022-12-07T10:37:50;14.73;;;8.93;;
57858;SDS011;49153;45.568;11.894;2022-12-07T10:45:28;11.93;;;8.07;;
57858;SDS011;49153;45.568;11.894;2022-12-07T10:53:31;13.38;;;8.75;;
57858;SDS011;49153;45.568;11.894;2022-12-07T10:56:20;12.73;;;8.27;;
57858;SDS011;49153;45.568;11.894;2022-12-07T11:18:26;11.38;;;8.10;;
57858;SDS011;49153;45.568;11.894;2022-12-07T11:37:35;7.05;;;5.40;;
57858;SDS011;49153;45.568;11.894;2022-12-07T11:43:27;10.13;;;6.88;;
57858;SDS011;49153;45.568;11.894;2022-12-07T11:46:02;8.75;;;6.05;;
57858;SDS011;49153;45.568;11.894;2022-12-07T11:48:38;9.55;;;6.38;;
57858;SDS011;49153;45.568;11.894;2022-12-07T11:51:09;9.70;;;7.05;;
57858;SDS011;49153;45.568;11.894;2022-12-07T11:53:51;9.45;;;6.68;;
57858;SDS011;49153;45.568;11.894;2022-12-07T11:56:21;7.90;;;6.00;;
57858;SDS011;49153;45.568;11.894;2022-12-07T11:58:50;7.47;;;5.05;;
57858;SDS011;49153;45.568;11.894;2022-12-07T12:06:36;8.98;;;5.38;;
57858;SDS011;49153;45.568;11.894;2022-12-07T12:09:09;6.57;;;4.60;;
57858;SDS011;49153;45.568;11.894;2022-12-07T12:22:37;5.43;;;4.32;;
57858;SDS011;49153;45.568;11.894;2022-12-07T12:25:19;5.90;;;4.32;;
57858;SDS011;49153;45.568;11.894;2022-12-07T12:28:02;5.53;;;3.90;;
57858;SDS011;49153;45.568;11.894;2022-12-07T12:30:32;6.13;;;4.20;;
57858;SDS011;49153;45.568;11.894;2022-12-07T12:33:12;7.07;;;4.07;;
57858;SDS011;49153;45.568;11.894;2022-12-07T12:35:41;6.22;;;4.43;;
57858;SDS011;49153;45.568;11.894;2022-12-07T12:38:46;6.45;;;4.35;;
57858;SDS011;49153;45.568;11.894;2022-12-07T12:41:50;6.10;;;4.20;;
57858;SDS011;49153;45.568;11.894;2022-12-07T12:51:57;6.57;;;4.45;;
57858;SDS011;49153;45.568;11.894;2022-12-07T12:54:31;5.70;;;4.10;;
57858;SDS011;49153;45.568;11.894;2022-12-07T12:57:04;6.95;;;4.30;;
57858;SDS011;49153;45.568;11.894;2022-12-07T12:59:32;6.15;;;4.22;;
57858;SDS011;49153;45.568;11.894;2022-12-07T13:02:08;6.50;;;5.03;;
57858;SDS011;49153;45.568;11.894;2022-12-07T13:04:52;5.70;;;4.13;;
57858;SDS011;49153;45.568;11.894;2022-12-07T13:13:04;6.67;;;4.80;;
57858;SDS011;49153;45.568;11.894;2022-12-07T13:15:43;6.13;;;4.22;;
57858;SDS011;49153;45.568;11.894;2022-12-07T13:37:13;6.55;;;4.90;;
57858;SDS011;49153;45.568;11.894;2022-12-07T13:42:31;7.25;;;5.20;;
57858;SDS011;49153;45.568;11.894;2022-12-07T13:44:59;7.45;;;5.10;;
57858;SDS011;49153;45.568;11.894;2022-12-07T13:47:41;7.50;;;5.05;;
57858;SDS011;49153;45.568;11.894;2022-12-07T13:52:49;7.88;;;4.72;;
57858;SDS011;49153;45.568;11.894;2022-12-07T13:55:15;6.60;;;4.97;;
57858;SDS011;49153;45.568;11.894;2022-12-07T13:57:42;9.70;;;6.00;;
57858;SDS011;49153;45.568;11.894;2022-12-07T14:00:16;7.57;;;5.35;;
57858;SDS011;49153;45.568;11.894;2022-12-07T14:02:57;7.40;;;5.47;;
57858;SDS011;49153;45.568;11.894;2022-12-07T14:05:27;8.10;;;5.72;;
57858;SDS011;49153;45.568;11.894;2022-12-07T14:15:52;7.78;;;5.75;;
57858;SDS011;49153;45.568;11.894;2022-12-07T14:18:25;6.72;;;5.25;;
57858;SDS011;49153;45.568;11.894;2022-12-07T14:21:02;9.15;;;5.57;;
57858;SDS011;49153;45.568;11.894;2022-12-07T14:23:38;8.32;;;5.95;;
57858;SDS011;49153;45.568;11.894;2022-12-07T14:28:37;7.68;;;5.80;;
57858;SDS011;49153;45.568;11.894;2022-12-07T14:31:03;8.50;;;5.57;;
57858;SDS011;49153;45.568;11.894;2022-12-07T14:33:34;9.98;;;6.13;;
57858;SDS011;49153;45.568;11.894;2022-12-07T14:35:59;8.23;;;5.55;;
57858;SDS011;49153;45.568;11.894;2022-12-07T14:38:25;7.88;;;5.63;;
57858;SDS011;49153;45.568;11.894;2022-12-07T14:40:54;7.63;;;5.43;;
57858;SDS011;49153;45.568;11.894;2022-12-07T14:43:40;6.93;;;5.53;;
57858;SDS011;49153;45.568;11.894;2022-12-07T14:46:06;9.27;;;6.28;;
57858;SDS011;49153;45.568;11.894;2022-12-07T14:48:31;9.00;;;6.30;;
57858;SDS011;49153;45.568;11.894;2022-12-07T14:50:57;9.52;;;5.53;;
57858;SDS011;49153;45.568;11.894;2022-12-07T14:53:27;7.82;;;5.65;;
57858;SDS011;49153;45.568;11.894;2022-12-07T14:55:55;8.15;;;5.75;;
57858;SDS011;49153;45.568;11.894;2022-12-07T14:58:20;10.45;;;5.95;;
57858;SDS011;49153;45.568;11.894;2022-12-07T15:00:46;8.05;;;5.60;;
57858;SDS011;49153;45.568;11.894;2022-12-07T15:03:12;9.30;;;5.60;;
57858;SDS011;49153;45.568;11.894;2022-12-07T15:05:38;7.63;;;5.28;;
57858;SDS011;49153;45.568;11.894;2022-12-07T15:08:04;9.60;;;6.30;;
57858;SDS011;49153;45.568;11.894;2022-12-07T15:10:31;9.82;;;6.05;;
57858;SDS011;49153;45.568;11.894;2022-12-07T15:13:01;10.45;;;6.20;;
57858;SDS011;49153;45.568;11.894;2022-12-07T15:15:46;8.43;;;5.93;;
57858;SDS011;49153;45.568;11.894;2022-12-07T15:18:14;9.30;;;6.28;;
57858;SDS011;49153;45.568;11.894;2022-12-07T15:20:40;10.82;;;7.25;;
57858;SDS011;49153;45.568;11.894;2022-12-07T15:23:05;12.30;;;7.63;;
57858;SDS011;49153;45.568;11.894;2022-12-07T15:25:31;13.70;;;8.48;;
57858;SDS011;49153;45.568;11.894;2022-12-07T15:27:56;12.15;;;7.53;;
57858;SDS011;49153;45.568;11.894;2022-12-07T15:30:22;11.93;;;7.28;;
57858;SDS011;49153;45.568;11.894;2022-12-07T15:32:51;13.75;;;8.85;;
57858;SDS011;49153;45.568;11.894;2022-12-07T15:35:17;16.17;;;8.38;;
57858;SDS011;49153;45.568;11.894;2022-12-07T15:37:43;15.40;;;8.98;;
57858;SDS011;49153;45.568;11.894;2022-12-07T15:40:09;15.40;;;9.48;;
57858;SDS011;49153;45.568;11.894;2022-12-07T15:42:35;16.77;;;10.77;;
57858;SDS011;49153;45.568;11.894;2022-12-07T15:45:02;19.85;;;11.35;;
57858;SDS011;49153;45.568;11.894;2022-12-07T15:47:28;17.50;;;11.10;;
57858;SDS011;49153;45.568;11.894;2022-12-07T15:49:55;19.58;;;11.95;;
57858;SDS011;49153;45.568;11.894;2022-12-07T15:52:20;17.67;;;11.07;;
57858;SDS011;49153;45.568;11.894;2022-12-07T15:54:46;21.20;;;12.68;;
57858;SDS011;49153;45.568;11.894;2022-12-07T15:57:12;22.50;;;12.07;;
57858;SDS011;49153;45.568;11.894;2022-12-07T15:59:38;21.25;;;12.80;;
57858;SDS011;49153;45.568;11.894;2022-12-07T16:02:03;20.30;;;12.45;;
57858;SDS011;49153;45.568;11.894;2022-12-07T16:04:29;19.67;;;11.50;;
57858;SDS011;49153;45.568;11.894;2022-12-07T16:06:54;20.52;;;12.57;;
57858;SDS011;49153;45.568;11.894;2022-12-07T16:09:20;23.98;;;13.43;;
57858;SDS011;49153;45.568;11.894;2022-12-07T16:11:46;28.23;;;15.93;;
57858;SDS011;49153;45.568;11.894;2022-12-07T16:14:11;21.80;;;12.57;;
57858;SDS011;49153;45.568;11.894;2022-12-07T16:16:38;26.75;;;13.88;;
57858;SDS011;49153;45.568;11.894;2022-12-07T16:19:05;23.25;;;13.82;;
57858;SDS011;49153;45.568;11.894;2022-12-07T16:21:30;20.38;;;12.80;;
57858;SDS011;49153;45.568;11.894;2022-12-07T16:23:57;20.30;;;13.07;;
57858;SDS011;49153;45.568;11.894;2022-12-07T16:26:24;23.75;;;13.82;;
57858;SDS011;49153;45.568;11.894;2022-12-07T16:28:50;25.70;;;14.43;;
57858;SDS011;49153;45.568;11.894;2022-12-07T16:31:17;29.00;;;15.15;;
57858;SDS011;49153;45.568;11.894;2022-12-07T16:33:44;25.23;;;14.68;;
57858;SDS011;49153;45.568;11.894;2022-12-07T16:36:11;26.05;;;13.93;;
57858;SDS011;49153;45.568;11.894;2022-12-07T16:38:39;26.65;;;14.40;;
57858;SDS011;49153;45.568;11.894;2022-12-07T16:41:05;26.63;;;13.80;;
57858;SDS011;49153;45.568;11.894;2022-12-07T16:43:31;28.67;;;15.05;;
57858;SDS011;49153;45.568;11.894;2022-12-07T16:45:57;29.50;;;15.43;;
57858;SDS011;49153;45.568;11.894;2022-12-07T16:48:23;34.47;;;16.55;;
57858;SDS011;49153;45.568;11.894;2022-12-07T16:50:48;32.20;;;16.48;;
57858;SDS011;49153;45.568;11.894;2022-12-07T16:53:14;31.77;;;16.83;;
57858;SDS011;49153;45.568;11.894;2022-12-07T16:55:41;33.83;;;17.48;;
57858;SDS011;49153;45.568;11.894;2022-12-07T16:58:08;37.38;;;17.90;;
57858;SDS011;49153;45.568;11.894;2022-12-07T17:00:35;37.70;;;18.23;;
57858;SDS011;49153;45.568;11.894;2022-12-07T17:03:02;32.97;;;17.52;;
57858;SDS011;49153;45.568;11.894;2022-12-07T17:05:28;28.63;;;15.60;;
57858;SDS011;49153;45.568;11.894;2022-12-07T17:07:54;27.88;;;15.77;;
57858;SDS011;49153;45.568;11.894;2022-12-07T17:10:20;25.98;;;14.50;;
57858;SDS011;49153;45.568;11.894;2022-12-07T17:12:45;28.55;;;15.57;;
57858;SDS011;49153;45.568;11.894;2022-12-07T17:15:11;29.77;;;15.27;;
57858;SDS011;49153;45.568;11.894;2022-12-07T17:17:46;31.65;;;16.42;;
57858;SDS011;49153;45.568;11.894;2022-12-07T17:20:17;29.48;;;14.80;;
57858;SDS011;49153;45.568;11.894;2022-12-07T17:22:43;24.95;;;13.57;;
57858;SDS011;49153;45.568;11.894;2022-12-07T17:25:09;29.52;;;15.23;;